createdAt,value
2023-10-23T00:02:18.567Z,98411.67
2023-10-23T00:05:06.776Z,98416.13
2023-10-23T00:07:48.538Z,98420.79
2023-10-23T00:10:43.574Z,98424.04
2023-10-23T00:13:38.548Z,98421.35
2023-10-23T00:16:33.671Z,98423.88
2023-10-23T00:19:29.546Z,98426.58
2023-10-23T00:22:17.555Z,98430.55
2023-10-23T00:24:59.592Z,98428.65
2023-10-23T00:27:54.594Z,98427.56
2023-10-23T00:30:43.651Z,98433.13
2023-10-23T00:33:25.741Z,98435.69
2023-10-23T00:36:13.559Z,98438.39
2023-10-23T00:38:55.544Z,98438.27
2023-10-23T00:41:43.566Z,98441.63
2023-10-23T00:44:18.664Z,98447.90
2023-10-23T00:47:06.588Z,98448.81
2023-10-23T00:49:41.670Z,98449.70
2023-10-23T00:52:29.537Z,98450.95
2023-10-23T00:55:05.046Z,98452.89
2023-10-23T00:57:52.611Z,98455.73
2023-10-23T01:00:27.908Z,98454.20
2023-10-23T01:03:15.661Z,98454.23
2023-10-23T01:05:50.743Z,98457.98
2023-10-23T01:08:38.556Z,98455.64
2023-10-23T01:11:19.750Z,98452.73
2023-10-23T01:14:00.568Z,98447.84
2023-10-23T01:16:41.721Z,98446.24
2023-10-23T01:19:36.575Z,98450.88
2023-10-23T01:22:24.557Z,98453.92
2023-10-23T01:24:59.859Z,98456.33
2023-10-23T01:27:47.590Z,98454.58
2023-10-23T01:30:22.741Z,98457.66
2023-10-23T01:33:10.582Z,98457.52
2023-10-23T01:35:45.689Z,98459.22
2023-10-23T01:38:33.547Z,98459.88
2023-10-23T01:41:08.684Z,98463.38
2023-10-23T01:43:56.562Z,98466.25
2023-10-23T01:46:31.709Z,98473.23
2023-10-23T01:49:19.540Z,98471.56
2023-10-23T01:51:53.717Z,98473.33
2023-10-23T01:54:41.730Z,98472.45
2023-10-23T01:57:16.808Z,98473.70
2023-10-23T02:00:11.561Z,98475.78
2023-10-23T02:02:46.714Z,98478.09
2023-10-23T02:05:34.569Z,98483.49
2023-10-23T02:08:10.335Z,98481.14
2023-10-23T02:10:59.534Z,98484.02
2023-10-23T02:13:34.696Z,98485.02
2023-10-23T02:16:22.596Z,98481.95
2023-10-23T02:18:57.745Z,98480.59
2023-10-23T02:21:45.577Z,98481.66
2023-10-23T02:24:30.584Z,98482.52
2023-10-23T02:27:18.677Z,98488.33
2023-10-23T02:29:53.794Z,98489.47
2023-10-23T02:32:41.657Z,98487.17
2023-10-23T02:35:22.678Z,98489.83
2023-10-23T02:38:03.563Z,98492.86
2023-10-23T02:40:44.660Z,98493.52
2023-10-23T02:43:25.525Z,98492.48
2023-10-23T02:46:17.551Z,98492.11
2023-10-23T02:48:52.144Z,98493.21
2023-10-23T02:51:40.644Z,98494.53
2023-10-23T02:54:15.945Z,98497.04
2023-10-23T02:57:03.545Z,98496.06
2023-10-23T02:59:38.149Z,98497.14
2023-10-23T03:02:26.548Z,98500.60
2023-10-23T03:05:00.972Z,98503.42
2023-10-23T03:07:48.562Z,98501.52
2023-10-23T03:10:22.929Z,98503.40
2023-10-23T03:13:10.576Z,98505.77
2023-10-23T03:15:45.346Z,98504.02
2023-10-23T03:18:33.694Z,98506.63
2023-10-23T03:21:09.092Z,98504.86
2023-10-23T03:23:56.609Z,98505.09
2023-10-23T03:26:37.583Z,98500.39
2023-10-23T03:29:18.769Z,98500.06
2023-10-23T03:32:00.701Z,98497.77
2023-10-23T03:34:41.731Z,98496.38
2023-10-23T03:37:23.541Z,98498.09
2023-10-23T03:40:04.777Z,98493.65
2023-10-23T03:42:45.572Z,98495.33
2023-10-23T03:45:26.667Z,98495.23
2023-10-23T03:48:07.519Z,98494.99
2023-10-23T03:50:55.557Z,98494.83
2023-10-23T03:53:30.239Z,98495.06
2023-10-23T03:56:21.537Z,98492.08
2023-10-23T03:59:02.538Z,98489.31
2023-10-23T04:01:50.549Z,98488.91
2023-10-23T04:04:25.172Z,98490.39
2023-10-23T04:07:13.585Z,98492.47
2023-10-23T04:10:08.524Z,98493.98
2023-10-23T04:12:56.542Z,98494.26
2023-10-23T04:15:31.710Z,98496.03
2023-10-23T04:18:19.520Z,98496.23
2023-10-23T04:20:54.643Z,98493.11
2023-10-23T04:23:43.541Z,98492.11
2023-10-23T04:26:18.650Z,98489.58
2023-10-23T04:29:06.549Z,98493.07
2023-10-23T04:31:41.698Z,98496.48
2023-10-23T04:34:29.551Z,98500.45
2023-10-23T04:37:04.684Z,98506.17
2023-10-23T04:39:52.584Z,98506.40
2023-10-23T04:42:27.702Z,98507.59
2023-10-23T04:45:16.534Z,98504.88
2023-10-23T04:47:51.710Z,98506.56
2023-10-23T04:50:40.545Z,98505.08
2023-10-23T04:53:22.551Z,98508.83
2023-10-23T04:56:19.554Z,98512.14
2023-10-23T04:59:07.556Z,98513.64
2023-10-23T05:01:42.711Z,98517.41
2023-10-23T05:04:30.642Z,98523.11
2023-10-23T05:07:05.724Z,98526.86
2023-10-23T05:09:53.577Z,98528.68
2023-10-23T05:12:29.924Z,98536.85
2023-10-23T05:15:17.546Z,98539.95
2023-10-23T05:17:52.760Z,98547.36
2023-10-23T05:20:48.555Z,98552.80
2023-10-23T05:23:29.922Z,98559.14
2023-10-23T05:26:20.542Z,98566.75
2023-10-23T05:29:02.541Z,98571.38
2023-10-23T05:31:43.675Z,98574.12
2023-10-23T05:34:24.544Z,98577.50
2023-10-23T05:37:05.876Z,98582.74
2023-10-23T05:39:47.554Z,98584.77
2023-10-23T05:42:35.569Z,98584.17
2023-10-23T05:45:10.779Z,98587.26
2023-10-23T05:47:58.582Z,98587.95
2023-10-23T05:50:32.979Z,98593.02
2023-10-23T05:53:20.485Z,98596.85
2023-10-23T05:55:55.403Z,98598.42
2023-10-23T05:58:43.524Z,98600.66
2023-10-23T06:01:18.452Z,98601.17
2023-10-23T06:04:06.571Z,98604.71
2023-10-23T06:06:41.076Z,98605.70
2023-10-23T06:09:29.575Z,98606.92
2023-10-23T06:12:12.508Z,98606.05
2023-10-23T06:15:00.626Z,98617.83
2023-10-23T06:17:42.516Z,98620.01
2023-10-23T06:20:37.500Z,98620.81
2023-10-23T06:23:25.868Z,98622.13
2023-10-23T06:26:10.693Z,98627.71
2023-10-23T06:28:58.550Z,98628.96
2023-10-23T06:31:33.744Z,98628.53
2023-10-23T06:34:21.512Z,98630.40
2023-10-23T06:37:04.651Z,98630.97
2023-10-23T06:40:00.967Z,98632.89
2023-10-23T06:42:48.498Z,98628.77
2023-10-23T06:45:37.766Z,98630.41
2023-10-23T06:48:52.533Z,98633.08
2023-10-23T06:51:40.517Z,98633.72
2023-10-23T06:54:15.699Z,98635.39
2023-10-23T06:57:03.520Z,98639.10
2023-10-23T06:59:38.952Z,98642.06
2023-10-23T07:02:27.524Z,98638.48
2023-10-23T07:05:02.873Z,98640.74
2023-10-23T07:07:51.500Z,98639.66
2023-10-23T07:10:26.610Z,98638.70
2023-10-23T07:13:22.032Z,98633.69
2023-10-23T07:15:58.832Z,98631.77
2023-10-23T07:18:46.675Z,98640.13
2023-10-23T07:21:31.530Z,98643.36
2023-10-23T07:24:48.146Z,98648.75
2023-10-23T07:27:59.561Z,98655.52
2023-10-23T07:30:34.638Z,98649.81
2023-10-23T07:33:22.537Z,98648.23
2023-10-23T07:36:13.568Z,98646.91
2023-10-23T07:39:08.488Z,98644.11
2023-10-23T07:41:56.474Z,98644.57
2023-10-23T07:44:37.516Z,98643.54
2023-10-23T07:47:32.497Z,98644.26
2023-10-23T07:50:20.523Z,98643.71
2023-10-23T07:52:55.718Z,98640.45
2023-10-23T07:55:45.473Z,98644.29
2023-10-23T07:58:26.664Z,98648.50
2023-10-23T08:01:13.771Z,98649.16
2023-10-23T08:03:54.727Z,98652.32
2023-10-23T08:06:36.527Z,98654.80
2023-10-23T08:09:25.467Z,98654.05
2023-10-23T08:12:06.493Z,98657.75
2023-10-23T08:14:52.767Z,98654.52
2023-10-23T08:17:42.184Z,98655.15
2023-10-23T08:20:31.457Z,98655.39
2023-10-23T08:23:19.497Z,98649.86
2023-10-23T08:25:54.605Z,98653.33
2023-10-23T08:31:37.506Z,98652.83
2023-10-23T08:34:29.638Z,98661.61
2023-10-23T08:37:05.107Z,98662.46
2023-10-23T08:39:53.797Z,98664.79
2023-10-23T08:42:28.927Z,98663.33
2023-10-23T08:45:16.490Z,98661.85
2023-10-23T08:47:58.720Z,98659.52
2023-10-23T08:50:40.706Z,98657.92
2023-10-23T08:53:22.643Z,98662.29
2023-10-23T08:56:03.499Z,98665.41
2023-10-23T08:58:52.466Z,98662.32
2023-10-23T09:01:37.026Z,98664.45
2023-10-23T09:04:25.753Z,98665.80
2023-10-23T09:07:01.913Z,98667.00
2023-10-23T09:09:50.516Z,98671.49
2023-10-23T09:12:39.475Z,98674.43
2023-10-23T09:15:26.249Z,98671.29
2023-10-23T09:18:10.846Z,98669.66
2023-10-23T09:21:05.764Z,98675.38
2023-10-23T09:24:11.690Z,98680.63
2023-10-23T09:26:46.614Z,98680.37
2023-10-23T09:29:35.497Z,98681.11
2023-10-23T09:32:10.663Z,98684.33
2023-10-23T09:34:58.504Z,98678.42
2023-10-23T09:37:35.694Z,98678.98
2023-10-23T09:40:25.814Z,98680.10
2023-10-23T09:43:02.550Z,98677.48
2023-10-23T09:45:50.528Z,98681.42
2023-10-23T09:48:25.711Z,98681.33
2023-10-23T09:51:13.478Z,98681.65
2023-10-23T09:53:50.628Z,98684.85
2023-10-23T09:56:39.734Z,98682.55
2023-10-23T09:59:22.450Z,98678.94
2023-10-23T10:02:13.560Z,98680.91
2023-10-23T10:04:55.864Z,98679.63
2023-10-23T10:07:50.776Z,98678.42
2023-10-23T10:10:32.637Z,98678.08
2023-10-23T10:13:28.502Z,98673.66
2023-10-23T10:16:17.815Z,98668.88
2023-10-23T10:18:53.940Z,98663.38
2023-10-23T10:22:13.560Z,98665.52
2023-10-23T10:24:49.810Z,98658.63
2023-10-23T10:27:37.790Z,98661.11
2023-10-23T10:30:14.594Z,98658.19
2023-10-23T10:34:18.432Z,98657.66
2023-10-23T10:36:13.709Z,98656.14
2023-10-23T10:39:02.454Z,98652.80
2023-10-23T10:41:41.878Z,98650.34
2023-10-23T10:44:30.470Z,98648.86
2023-10-23T10:47:05.649Z,98648.04
2023-10-23T10:49:55.484Z,98646.74
2023-10-23T10:52:34.693Z,98642.92
2023-10-23T10:55:25.554Z,98640.69
2023-10-23T10:58:01.500Z,98639.41
2023-10-23T11:00:49.516Z,98639.61
2023-10-23T11:03:26.044Z,98637.30
2023-10-23T11:06:15.837Z,98635.98
2023-10-23T11:08:50.597Z,98637.19
2023-10-23T11:11:38.530Z,98634.92
2023-10-23T11:14:13.869Z,98633.17
2023-10-23T11:17:01.623Z,98633.41
2023-10-23T11:19:36.675Z,98632.33
2023-10-23T11:22:34.518Z,98628.83
2023-10-23T11:25:10.596Z,98619.80
2023-10-23T11:27:59.712Z,98618.38
2023-10-23T11:30:35.996Z,98619.90
2023-10-23T11:33:26.866Z,98618.84
2023-10-23T11:36:02.303Z,98616.63
2023-10-23T11:38:52.503Z,98613.71
2023-10-23T11:41:29.721Z,98615.41
2023-10-23T11:44:17.468Z,98615.41
2023-10-23T11:46:52.779Z,98614.02
2023-10-23T11:49:40.633Z,98612.98
2023-10-23T11:52:22.609Z,98610.85
2023-10-23T11:55:14.562Z,98607.02
2023-10-23T11:57:52.739Z,98607.05
2023-10-23T12:00:42.482Z,98608.93
2023-10-23T12:03:17.639Z,98611.58
2023-10-23T12:06:06.542Z,98612.61
2023-10-23T12:08:41.952Z,98615.30
2023-10-23T12:11:29.494Z,98618.86
2023-10-23T12:14:04.650Z,98616.65
2023-10-23T12:16:52.511Z,98614.11
2023-10-23T12:19:27.655Z,98618.48
2023-10-23T12:22:15.525Z,98612.84
2023-10-23T12:24:50.642Z,98611.72
2023-10-23T12:27:40.474Z,98608.80
2023-10-23T12:30:28.979Z,98611.02
2023-10-23T12:33:30.308Z,98612.80
2023-10-23T12:36:23.477Z,98611.10
2023-10-23T12:38:57.681Z,98606.70
2023-10-23T12:41:45.542Z,98606.63
2023-10-23T12:44:20.786Z,98606.33
2023-10-23T12:47:08.570Z,98605.70
2023-10-23T12:49:44.132Z,98604.92
2023-10-23T12:52:32.479Z,98603.61
2023-10-23T12:55:07.623Z,98596.05
2023-10-23T12:57:55.640Z,98596.58
2023-10-23T13:00:30.768Z,98591.31
2023-10-23T13:03:18.492Z,98589.70
2023-10-23T13:05:53.589Z,98591.83
2023-10-23T13:08:41.522Z,98584.80
2023-10-23T13:11:16.633Z,98579.45
2023-10-23T13:14:05.469Z,98578.95
2023-10-23T13:16:40.721Z,98580.74
2023-10-23T13:19:28.503Z,98578.71
2023-10-23T13:22:11.593Z,98579.59
2023-10-23T13:25:00.466Z,98571.88
2023-10-23T13:27:42.482Z,98574.46
2023-10-23T13:30:37.501Z,98575.17
2023-10-23T13:33:26.460Z,98572.36
2023-10-23T13:36:01.653Z,98572.55
2023-10-23T13:38:49.481Z,98573.58
2023-10-23T13:41:24.612Z,98567.46
2023-10-23T13:44:12.476Z,98564.67
2023-10-23T13:46:54.576Z,98563.27
2023-10-23T13:49:49.575Z,98566.61
2023-10-23T13:52:38.486Z,98565.75
2023-10-23T13:55:13.690Z,98565.51
2023-10-23T13:58:01.519Z,98565.58
2023-10-23T14:00:36.615Z,98561.52
2023-10-23T14:03:27.576Z,98557.91
2023-10-23T14:06:11.513Z,98560.56
2023-10-23T14:09:42.420Z,98554.48
2023-10-23T14:12:02.159Z,98548.10
2023-10-23T14:14:50.584Z,98548.21
2023-10-23T14:17:26.369Z,98547.91
2023-10-23T14:20:23.739Z,98549.52
2023-10-23T14:23:19.528Z,98548.35
2023-10-23T14:26:08.730Z,98552.80
2023-10-23T14:28:50.565Z,98552.58
2023-10-23T14:31:45.633Z,98548.70
2023-10-23T14:34:33.718Z,98545.16
2023-10-23T14:37:09.006Z,98546.28
2023-10-23T14:39:59.389Z,98542.98
2023-10-23T14:42:34.961Z,98543.98
2023-10-23T14:45:22.584Z,98542.27
2023-10-23T14:48:04.269Z,98541.50
2023-10-23T14:50:45.592Z,98539.88
2023-10-23T14:53:27.892Z,98536.73
2023-10-23T14:56:16.566Z,98539.56
2023-10-23T14:58:57.777Z,98537.02
2023-10-23T15:01:39.606Z,98542.18
2023-10-23T15:04:21.672Z,98541.59
2023-10-23T15:07:03.651Z,98543.27
2023-10-23T15:09:44.603Z,98542.82
2023-10-23T15:12:25.478Z,98543.54
2023-10-23T15:15:13.475Z,98543.27
2023-10-23T15:17:48.034Z,98542.34
2023-10-23T15:20:37.832Z,98538.08
2023-10-23T15:23:32.702Z,98536.02
2023-10-23T15:26:20.495Z,98537.73
2023-10-23T15:28:55.772Z,98540.68
2023-10-23T15:31:43.540Z,98546.83
2023-10-23T15:34:18.721Z,98553.81
2023-10-23T15:37:06.559Z,98562.30
2023-10-23T15:39:46.212Z,98559.44
2023-10-23T15:42:36.497Z,98556.41
2023-10-23T15:45:12.372Z,98556.09
2023-10-23T15:48:07.545Z,98558.08
2023-10-23T15:50:49.488Z,98562.02
2023-10-23T15:53:37.532Z,98564.32
2023-10-23T15:56:12.674Z,98561.05
2023-10-23T15:59:00.499Z,98563.29
2023-10-23T16:01:35.836Z,98563.52
2023-10-23T16:04:23.536Z,98563.13
2023-10-23T16:07:05.567Z,98562.59
2023-10-23T16:10:00.535Z,98564.50
2023-10-23T16:12:50.501Z,98560.43
2023-10-23T16:15:27.623Z,98558.77
2023-10-23T16:18:19.510Z,98559.27
2023-10-23T16:20:58.558Z,98560.71
2023-10-23T16:23:46.493Z,98566.08
2023-10-23T16:26:21.664Z,98565.74
2023-10-23T16:29:09.619Z,98564.56
2023-10-23T16:31:51.613Z,98562.85
2023-10-23T16:34:46.558Z,98562.71
2023-10-23T16:37:40.267Z,98557.91
2023-10-23T16:40:16.715Z,98556.66
2023-10-23T16:43:07.552Z,98556.72
2023-10-23T16:45:48.634Z,98556.93
2023-10-23T16:48:29.496Z,98555.16
2023-10-23T16:51:36.048Z,98552.62
2023-10-23T16:54:26.504Z,98551.44
2023-10-23T16:57:21.494Z,98551.14
2023-10-23T17:00:11.329Z,98547.27
2023-10-23T17:02:46.731Z,98542.14
2023-10-23T17:05:35.515Z,98541.70
2023-10-23T17:08:10.665Z,98538.09
2023-10-23T17:10:58.502Z,98539.65
2023-10-23T17:13:33.741Z,98537.63
2023-10-23T17:16:21.531Z,98533.91
2023-10-23T17:18:56.709Z,98534.39
2023-10-23T17:21:51.823Z,98536.58
2023-10-23T17:24:46.533Z,98535.60
2023-10-23T17:27:35.543Z,98534.12
2023-10-23T17:30:11.864Z,98532.80
2023-10-23T17:33:00.611Z,98528.03
2023-10-23T17:35:35.937Z,98523.77
2023-10-23T17:38:25.531Z,98522.52
2023-10-23T17:41:00.660Z,98523.40
2023-10-23T17:43:49.342Z,98526.74
2023-10-23T17:46:24.900Z,98533.80
2023-10-23T17:49:19.723Z,98535.83
2023-10-23T17:51:56.065Z,98538.92
2023-10-23T17:54:46.630Z,98536.42
2023-10-23T17:57:29.754Z,98535.29
2023-10-23T18:00:28.993Z,98541.68
2023-10-23T18:03:17.774Z,98543.63
2023-10-23T18:05:53.313Z,98545.35
2023-10-23T18:08:42.501Z,98546.95
2023-10-23T18:11:20.465Z,98544.39
2023-10-23T18:14:08.525Z,98545.20
2023-10-23T18:16:43.865Z,98548.05
2023-10-23T18:19:32.665Z,98552.30
2023-10-23T18:22:15.482Z,98554.02
2023-10-23T18:25:11.604Z,98553.01
2023-10-23T18:28:01.607Z,98548.90
2023-10-23T18:30:38.708Z,98547.18
2023-10-23T18:33:26.488Z,98548.60
2023-10-23T18:36:09.570Z,98545.41
2023-10-23T18:38:51.464Z,98544.33
2023-10-23T18:48:03.012Z,98540.50
2023-10-23T18:50:51.631Z,98540.37
2023-10-23T18:53:26.610Z,98537.62
2023-10-23T18:56:14.476Z,98535.86
2023-10-23T18:58:50.136Z,98533.59
2023-10-23T19:01:39.329Z,98533.28
2023-10-23T19:04:14.807Z,98530.19
2023-10-23T19:07:02.773Z,98532.77
2023-10-23T19:09:38.735Z,98525.34
2023-10-23T19:12:28.745Z,98524.42
2023-10-23T19:15:10.081Z,98522.43
2023-10-23T19:17:53.395Z,98518.31
2023-10-23T19:20:37.397Z,98520.53
2023-10-23T19:23:19.765Z,98516.08
2023-10-23T19:26:08.449Z,98513.16
2023-10-23T19:28:49.750Z,98509.33
2023-10-23T19:31:41.588Z,98506.73
2023-10-23T19:34:17.112Z,98507.44
2023-10-23T19:37:06.865Z,98511.68
2023-10-23T19:39:42.421Z,98516.85
2023-10-23T19:42:32.480Z,98513.42
2023-10-23T19:45:09.082Z,98510.36
2023-10-23T19:47:58.508Z,98507.08
2023-10-23T19:50:46.062Z,98506.55
2023-10-23T19:53:41.452Z,98507.86
2023-10-23T19:56:32.864Z,98506.06
2023-10-23T19:59:14.854Z,98502.44
2023-10-23T20:01:56.621Z,98499.89
2023-10-23T20:04:38.974Z,98501.40
2023-10-23T20:07:20.512Z,98500.52
2023-10-23T20:10:02.609Z,98501.45
2023-10-23T20:12:43.535Z,98508.95
2023-10-23T20:15:28.071Z,98510.42
2023-10-23T20:18:09.658Z,98513.11
2023-10-23T20:20:57.770Z,98513.29
2023-10-23T20:23:34.265Z,98510.05
2023-10-23T20:26:29.503Z,98510.25
2023-10-23T20:29:03.889Z,98504.38
2023-10-23T20:31:51.533Z,98505.88
2023-10-23T20:34:32.814Z,98507.30
2023-10-23T20:37:20.881Z,98508.08
2023-10-23T20:39:57.087Z,98508.33
2023-10-23T20:42:46.531Z,98507.13
2023-10-23T20:45:22.115Z,98504.44
2023-10-23T20:48:12.864Z,98504.88
2023-10-23T20:51:01.749Z,98505.91
2023-10-23T20:53:37.606Z,98499.53
2023-10-23T20:56:28.138Z,98496.83
2023-10-23T20:59:04.447Z,98493.42
2023-10-23T21:01:53.536Z,98493.50
2023-10-23T21:04:29.393Z,98497.07
2023-10-23T21:07:18.497Z,98497.52
2023-10-23T21:10:00.916Z,98496.31
2023-10-23T21:12:56.000Z,98492.20
2023-10-23T21:15:43.449Z,98487.41
2023-10-23T21:18:25.447Z,98488.36
2023-10-23T21:21:20.433Z,98491.40
2023-10-23T21:24:08.438Z,98496.16
2023-10-23T21:26:43.599Z,98487.70
2023-10-23T21:29:32.461Z,98486.85
2023-10-23T21:32:07.637Z,98489.84
2023-10-23T21:34:55.467Z,98487.20
2023-10-23T21:37:37.478Z,98485.30
2023-10-23T21:40:25.459Z,98482.51
2023-10-23T21:43:07.477Z,98481.03
2023-10-23T21:49:05.495Z,98474.42
2023-10-23T21:52:00.487Z,98479.46
2023-10-23T21:54:48.478Z,98483.85
2023-10-23T21:57:23.877Z,98477.05
2023-10-23T22:00:17.477Z,98476.59
2023-10-23T22:02:59.508Z,98471.24
2023-10-23T22:05:56.437Z,98460.84
2023-10-23T22:08:45.741Z,98453.65
2023-10-23T22:11:21.568Z,98453.82
2023-10-23T22:14:11.431Z,98451.79
2023-10-23T22:16:47.090Z,98449.95
2023-10-23T22:19:39.395Z,98449.65
2023-10-23T22:22:14.596Z,98452.25
2023-10-23T22:25:02.457Z,98449.43
2023-10-23T22:27:44.452Z,98448.72
2023-10-23T22:30:27.034Z,98445.48
2023-10-23T22:33:16.474Z,98445.68
2023-10-23T22:35:59.530Z,98445.39
2023-10-23T22:38:40.745Z,98439.31
2023-10-23T22:41:22.451Z,98438.39
2023-10-23T22:44:10.463Z,98438.70
2023-10-23T22:46:45.031Z,98436.92
2023-10-23T22:49:33.494Z,98433.59
2023-10-23T22:52:28.548Z,98433.80
2023-10-23T22:55:18.484Z,98429.98
2023-10-23T22:57:53.841Z,98431.79
2023-10-23T23:00:41.456Z,98432.67
2023-10-23T23:03:23.550Z,98427.31
2023-10-23T23:06:13.456Z,98427.85
2023-10-23T23:08:56.464Z,98424.50
2023-10-23T23:11:51.465Z,98427.69
2023-10-23T23:14:39.609Z,98434.70
2023-10-23T23:17:14.677Z,98428.83
2023-10-23T23:20:03.475Z,98426.21
2023-10-23T23:22:38.726Z,98425.94
2023-10-23T23:25:27.480Z,98419.48
2023-10-23T23:28:02.572Z,98419.67
2023-10-23T23:30:50.463Z,98418.31
2023-10-23T23:33:32.554Z,98418.00
2023-10-23T23:36:27.467Z,98412.00
2023-10-23T23:39:17.450Z,98410.05
2023-10-23T23:42:00.483Z,98406.47
2023-10-23T23:44:55.453Z,98403.14
2023-10-23T23:47:43.499Z,98406.44
2023-10-23T23:50:38.445Z,98403.48
2023-10-23T23:53:26.433Z,98405.71
2023-10-23T23:56:00.584Z,98402.57
2023-10-23T23:58:48.446Z,98401.31
